createdAt,value
2019-05-18T00:00:58.030Z,83.60
2019-05-18T00:06:03.269Z,83.47
2019-05-18T00:11:08.611Z,83.02
2019-05-18T00:16:13.888Z,83.19
2019-05-18T00:21:19.183Z,82.98
2019-05-18T00:26:24.501Z,83.70
2019-05-18T00:31:29.801Z,83.13
2019-05-18T00:36:35.371Z,83.25
2019-05-18T00:41:40.571Z,83.53
2019-05-18T00:46:45.966Z,83.73
2019-05-18T00:51:51.385Z,83.18
2019-05-18T00:56:56.631Z,83.60
2019-05-18T01:02:01.954Z,83.92
2019-05-18T01:07:07.099Z,83.85
2019-05-18T01:12:12.572Z,84.11
2019-05-18T01:17:18.011Z,84.82
2019-05-18T01:22:23.352Z,84.85
2019-05-18T01:27:28.824Z,84.92
2019-05-18T01:32:34.180Z,84.73
2019-05-18T01:37:39.842Z,84.57
2019-05-18T01:42:45.512Z,84.63
2019-05-18T01:47:50.972Z,84.26
2019-05-18T01:52:56.734Z,84.76
2019-05-18T01:58:01.960Z,85.24
2019-05-18T02:03:07.185Z,85.23
2019-05-18T02:08:12.631Z,84.53
2019-05-18T02:13:17.979Z,84.45
2019-05-18T02:18:29.073Z,85.03
2019-05-18T02:23:30.135Z,85.37
2019-05-18T02:28:35.483Z,85.25
2019-05-18T02:33:40.951Z,84.71
2019-05-18T02:38:46.343Z,84.49
2019-05-18T02:43:51.682Z,85.19
2019-05-18T02:48:57.016Z,85.20
2019-05-18T02:54:02.475Z,84.95
2019-05-18T02:59:07.933Z,85.14
2019-05-18T03:04:14.153Z,84.98
2019-05-18T03:09:19.577Z,85.08
2019-05-18T03:14:24.886Z,84.60
2019-05-18T03:19:30.112Z,84.76
2019-05-18T03:24:35.759Z,84.90
2019-05-18T03:29:41.014Z,84.96
2019-05-18T03:34:46.236Z,84.67
2019-05-18T03:39:51.334Z,84.89
2019-05-18T03:44:56.807Z,83.76
2019-05-18T03:50:02.354Z,83.47
2019-05-18T03:55:07.824Z,83.65
2019-05-18T04:00:13.110Z,83.98
2019-05-18T04:05:18.531Z,83.72
2019-05-18T04:10:28.102Z,83.72
2019-05-18T04:15:33.185Z,83.88
2019-05-18T04:20:38.684Z,83.68
2019-05-18T04:25:44.275Z,84.09
2019-05-18T04:30:49.674Z,84.10
2019-05-18T04:35:55.131Z,83.86
2019-05-18T04:41:00.492Z,82.82
2019-05-18T04:46:05.640Z,82.45
2019-05-18T04:51:11.118Z,83.20
2019-05-18T04:56:16.469Z,82.71
2019-05-18T05:01:21.871Z,82.38
2019-05-18T05:06:26.950Z,80.50
2019-05-18T05:11:32.091Z,80.89
2019-05-18T05:16:37.235Z,81.97
2019-05-18T05:21:42.468Z,80.97
2019-05-18T05:26:47.959Z,80.35
2019-05-18T05:31:53.311Z,80.62
2019-05-18T05:36:58.476Z,80.75
2019-05-18T05:42:03.710Z,81.30
2019-05-18T05:47:08.908Z,81.49
2019-05-18T05:52:14.218Z,80.08
2019-05-18T05:57:19.586Z,81.64
2019-05-18T06:02:24.835Z,80.61
2019-05-18T06:07:30.216Z,80.76
2019-05-18T06:12:35.691Z,79.90
2019-05-18T06:17:41.021Z,80.74
2019-05-18T06:22:46.457Z,80.05
2019-05-18T06:27:51.598Z,79.59
2019-05-18T06:32:56.825Z,80.04
2019-05-18T06:38:01.903Z,79.89
2019-05-18T06:43:07.078Z,79.65
2019-05-18T06:48:12.326Z,80.07
2019-05-18T06:53:17.488Z,79.67
2019-05-18T06:58:23.808Z,79.29
2019-05-18T07:03:29.376Z,79.80
2019-05-18T07:08:36.278Z,80.29
2019-05-18T07:13:41.715Z,79.67
2019-05-18T07:18:46.875Z,79.49
2019-05-18T07:23:52.028Z,79.55
2019-05-18T07:28:57.380Z,78.73
2019-05-18T07:34:02.628Z,78.27
2019-05-18T07:39:08.610Z,77.00
2019-05-18T07:44:13.816Z,78.22
2019-05-18T07:49:18.878Z,77.77
2019-05-18T07:54:24.394Z,77.38
2019-05-18T07:59:29.838Z,77.32
2019-05-18T08:04:35.112Z,76.96
2019-05-18T08:09:40.552Z,75.92
2019-05-18T08:14:45.715Z,74.75
2019-05-18T08:19:52.957Z,75.46
2019-05-18T08:24:58.284Z,75.77
2019-05-18T08:30:04.129Z,76.04
2019-05-18T08:35:09.917Z,76.81
2019-05-18T08:40:15.607Z,77.52
2019-05-18T08:45:21.045Z,77.11
2019-05-18T08:50:26.146Z,78.03
2019-05-18T08:55:31.310Z,78.30
2019-05-18T09:00:37.012Z,77.42
2019-05-18T09:05:42.784Z,77.50
2019-05-18T09:10:48.172Z,78.21
2019-05-18T09:15:53.561Z,78.81
2019-05-18T09:20:58.948Z,79.17
2019-05-18T09:26:04.547Z,79.71
2019-05-18T09:31:10.378Z,79.86
2019-05-18T09:36:15.568Z,80.92
2019-05-18T09:41:20.904Z,80.90
2019-05-18T09:46:26.266Z,81.36
2019-05-18T09:51:31.468Z,82.65
2019-05-18T09:56:36.683Z,82.68
2019-05-18T10:01:41.940Z,83.34
2019-05-18T10:06:47.041Z,82.69
2019-05-18T10:11:52.248Z,82.77
2019-05-18T10:16:57.556Z,83.12
2019-05-18T10:22:02.917Z,82.71
2019-05-18T10:27:08.125Z,83.04
2019-05-18T10:32:13.348Z,82.74
2019-05-18T10:37:18.695Z,82.96
2019-05-18T10:42:24.074Z,83.36
2019-05-18T10:47:29.454Z,83.27
2019-05-18T10:52:34.760Z,83.91
2019-05-18T10:57:40.068Z,84.61
2019-05-18T11:02:45.421Z,84.47
2019-05-18T11:07:50.736Z,84.94
2019-05-18T11:12:56.183Z,84.32
2019-05-18T11:18:01.398Z,83.70
2019-05-18T11:23:06.905Z,83.28
2019-05-18T11:28:12.203Z,83.21
2019-05-18T11:33:17.379Z,81.87
2019-05-18T11:38:23.129Z,81.75
2019-05-18T11:43:28.251Z,80.56
2019-05-18T11:48:33.595Z,79.13
2019-05-18T11:53:38.922Z,77.41
2019-05-18T11:58:44.067Z,76.91
2019-05-18T12:03:49.186Z,76.37
2019-05-18T12:08:54.371Z,76.13
2019-05-18T12:13:59.491Z,75.73
2019-05-18T12:19:04.772Z,75.37
2019-05-18T12:24:15.609Z,76.04
2019-05-18T12:29:17.650Z,73.68
2019-05-18T12:34:23.814Z,75.08
2019-05-18T12:39:29.201Z,74.04
2019-05-18T12:44:34.598Z,73.49
2019-05-18T12:49:39.769Z,73.17
2019-05-18T12:54:46.950Z,75.21
2019-05-18T12:59:51.822Z,76.41
2019-05-18T13:04:56.931Z,78.45
2019-05-18T13:10:02.079Z,78.47
2019-05-18T13:15:09.581Z,78.90
2019-05-18T13:20:17.124Z,79.45
2019-05-18T13:25:22.776Z,80.38
2019-05-18T13:30:28.093Z,80.59
2019-05-18T13:35:33.397Z,80.86
2019-05-18T13:40:38.741Z,79.91
2019-05-18T13:45:44.070Z,79.59
2019-05-18T13:50:49.416Z,80.86
2019-05-18T13:55:54.780Z,80.68
2019-05-18T14:01:00.159Z,79.68
2019-05-18T14:06:05.722Z,79.60
2019-05-18T14:11:10.964Z,78.97
2019-05-18T14:16:16.187Z,79.76
2019-05-18T14:21:23.156Z,79.08
2019-05-18T14:26:32.174Z,78.16
2019-05-18T14:31:37.530Z,77.41
2019-05-18T14:36:43.091Z,77.88
2019-05-18T14:41:49.771Z,76.60
2019-05-18T14:46:55.004Z,71.22
2019-05-18T14:52:00.399Z,67.80
2019-05-18T14:57:06.002Z,65.14
2019-05-18T15:02:11.619Z,60.57
2019-05-18T15:07:17.092Z,57.55
2019-05-18T15:12:22.388Z,55.78
2019-05-18T15:17:27.749Z,54.96
2019-05-18T15:22:33.832Z,56.54
2019-05-18T15:27:39.340Z,57.20
2019-05-18T15:32:44.668Z,63.96
2019-05-18T15:37:49.878Z,58.11
2019-05-18T15:42:55.406Z,54.89
2019-05-18T15:48:00.880Z,58.09
2019-05-18T15:53:06.282Z,56.64
2019-05-18T15:58:11.900Z,52.37
2019-05-18T16:03:17.211Z,51.51
2019-05-18T16:08:22.470Z,48.75
2019-05-18T16:13:27.956Z,53.00
2019-05-18T16:18:35.507Z,58.97
2019-05-18T16:23:40.899Z,61.45
2019-05-18T16:28:46.341Z,62.03
2019-05-18T16:33:51.663Z,60.91
2019-05-18T16:38:57.025Z,55.82
2019-05-18T16:44:02.942Z,54.64
2019-05-18T16:49:08.457Z,55.23
2019-05-18T16:54:14.621Z,57.33
2019-05-18T16:59:19.915Z,55.10
2019-05-18T17:04:25.258Z,56.00
2019-05-18T17:09:30.483Z,56.56
2019-05-18T17:14:36.174Z,60.09
2019-05-18T17:19:41.546Z,64.02
2019-05-18T17:24:47.009Z,66.78
2019-05-18T17:29:52.212Z,67.87
2019-05-18T17:34:57.722Z,71.40
2019-05-18T17:40:03.197Z,72.27
2019-05-18T17:45:09.269Z,74.13
2019-05-18T17:50:15.975Z,74.01
2019-05-18T17:55:21.283Z,76.23
2019-05-18T18:00:26.778Z,76.13
2019-05-18T18:05:32.415Z,76.36
2019-05-18T18:10:38.100Z,76.88
2019-05-18T18:15:43.613Z,76.60
2019-05-18T18:20:49.166Z,78.75
2019-05-18T18:25:54.584Z,77.56
2019-05-18T18:30:59.944Z,79.65
2019-05-18T18:36:05.498Z,79.43
2019-05-18T18:41:11.089Z,79.15
2019-05-18T18:46:16.629Z,79.25
2019-05-18T18:51:21.952Z,78.56
2019-05-18T18:56:27.560Z,79.58
2019-05-18T19:01:32.701Z,80.77
2019-05-18T19:06:37.956Z,78.93
2019-05-18T19:11:43.142Z,80.43
2019-05-18T19:16:48.395Z,80.27
2019-05-18T19:21:53.512Z,81.10
2019-05-18T19:26:58.815Z,80.82
2019-05-18T19:32:04.045Z,80.82
2019-05-18T19:37:09.326Z,81.41
2019-05-18T19:42:14.620Z,81.47
2019-05-18T19:47:19.874Z,81.41
2019-05-18T19:52:25.104Z,81.03
2019-05-18T19:57:30.324Z,81.66
2019-05-18T20:02:35.605Z,81.70
2019-05-18T20:07:40.831Z,81.55
2019-05-18T20:12:46.185Z,81.57
2019-05-18T20:17:51.411Z,81.92
2019-05-18T20:22:56.779Z,81.71
2019-05-18T20:28:02.115Z,81.26
2019-05-18T20:33:07.479Z,81.28
2019-05-18T20:38:12.982Z,81.00
2019-05-18T20:43:18.226Z,80.95
2019-05-18T20:48:23.629Z,81.21
2019-05-18T20:53:29.059Z,80.63
2019-05-18T20:58:40.155Z,80.92
2019-05-18T21:03:41.568Z,81.46
2019-05-18T21:08:47.084Z,82.23
2019-05-18T21:13:52.556Z,81.05
2019-05-18T21:18:57.814Z,80.83
2019-05-18T21:24:03.291Z,80.45
2019-05-18T21:29:08.832Z,80.26
2019-05-18T21:34:14.073Z,80.87
2019-05-18T21:39:19.388Z,81.48
2019-05-18T21:44:24.914Z,81.58
2019-05-18T21:49:30.265Z,81.15
2019-05-18T21:54:36.864Z,80.81
2019-05-18T21:59:42.444Z,81.02
2019-05-18T22:04:47.880Z,81.10
2019-05-18T22:09:53.877Z,81.45
2019-05-18T22:14:59.520Z,81.69
2019-05-18T22:20:06.209Z,80.93
2019-05-18T22:25:11.568Z,80.77
2019-05-18T22:30:16.825Z,81.45
2019-05-18T22:35:22.154Z,81.70
2019-05-18T22:40:27.498Z,81.24
2019-05-18T22:45:32.895Z,82.00
2019-05-18T22:50:38.369Z,82.66
2019-05-18T22:55:43.846Z,82.12
2019-05-18T23:00:49.287Z,83.01
2019-05-18T23:05:54.730Z,82.56
2019-05-18T23:11:01.267Z,81.77
2019-05-18T23:16:06.647Z,82.17
2019-05-18T23:21:12.142Z,82.40
2019-05-18T23:26:17.610Z,82.24
2019-05-18T23:31:22.864Z,82.43
2019-05-18T23:36:28.220Z,82.43
2019-05-18T23:41:33.675Z,83.83
2019-05-18T23:46:39.043Z,82.93
2019-05-18T23:51:44.191Z,82.97
2019-05-18T23:56:49.655Z,83.36
